Time;durP1;ratioP1;P1;durP2;ratioP2;P2;SDS_P1;SDS_P2;PMS_P1;PMS_P2;Temp;Humidity;BMP_temperature;BMP_pressure;BME280_temperature;BME280_humidity;BME280_pressure;Samples;Min_cycle;Max_cycle;Signal;HPM_P1;HPM_P2
2023/02/23 00:03:00;;;;;;;144.50;43.47;;;8.20;99.90;;;;;;4788122;30;20228;-64
2023/02/23 00:06:07;;;;;;;141.57;43.83;;;8.10;99.90;;;;;;4787682;30;20332;-64
2023/02/23 00:09:22;;;;;;;136.77;43.73;;;8.10;99.90;;;;;;4788023;30;20720;-65
2023/02/23 00:12:28;;;;;;;144.13;42.97;;;8.10;99.90;;;;;;4788080;30;20198;-65
2023/02/23 00:15:34;;;;;;;145.27;43.23;;;8.10;99.90;;;;;;4788067;30;20193;-64
2023/02/23 00:18:47;;;;;;;136.90;42.00;;;8.10;99.90;;;;;;4790652;30;20673;-64
2023/02/23 00:21:53;;;;;;;153.00;42.57;;;8.10;99.90;;;;;;4791139;30;20274;-65
2023/02/23 00:24:58;;;;;;;124.83;40.63;;;8.10;99.90;;;;;;4791039;30;20237;-64
2023/02/23 00:28:06;;;;;;;126.87;40.27;;;8.00;99.90;;;;;;4791600;30;20209;-64
2023/02/23 00:31:12;;;;;;;136.57;40.17;;;8.00;99.90;;;;;;4791100;30;20189;-64
2023/02/23 00:34:22;;;;;;;129.70;38.33;;;8.00;99.90;;;;;;4791401;30;20194;-64
2023/02/23 00:37:28;;;;;;;131.97;39.57;;;7.90;99.90;;;;;;4790692;30;20350;-65
2023/02/23 00:40:34;;;;;;;133.27;40.10;;;7.90;99.90;;;;;;4790925;30;20233;-64
2023/02/23 00:43:46;;;;;;;140.90;40.97;;;7.90;99.90;;;;;;4791007;30;20205;-64
2023/02/23 00:46:52;;;;;;;140.10;41.27;;;7.90;99.90;;;;;;4790846;30;20249;-64
2023/02/23 00:50:00;;;;;;;151.23;42.83;;;7.90;99.90;;;;;;4804092;29;20205;-64
2023/02/23 00:53:05;;;;;;;132.10;41.87;;;8.00;99.90;;;;;;4808830;29;20607;-64
2023/02/23 00:56:13;;;;;;;147.27;41.70;;;8.00;99.90;;;;;;4808619;29;20228;-64
2023/02/23 00:59:20;;;;;;;133.63;39.33;;;7.90;99.90;;;;;;4808709;29;20204;-64
2023/02/23 01:02:29;;;;;;;154.23;41.93;;;7.90;99.90;;;;;;4808937;29;20236;-64
2023/02/23 01:05:36;;;;;;;143.00;40.53;;;8.00;99.90;;;;;;4808473;29;20204;-64
2023/02/23 01:08:44;;;;;;;148.60;40.87;;;7.90;99.90;;;;;;4808560;29;20345;-64
2023/02/23 01:11:49;;;;;;;140.90;38.90;;;7.90;99.90;;;;;;4808734;29;20197;-64
2023/02/23 01:19:27;;;;;;;145.47;38.50;;;7.90;99.90;;;;;;4808455;29;20227;-64
2023/02/23 01:27:07;;;;;;;136.50;38.23;;;7.90;99.90;;;;;;4808324;29;20232;-64
2023/02/23 01:30:14;;;;;;;136.77;38.03;;;7.90;99.90;;;;;;4808438;29;20185;-64
2023/02/23 01:33:20;;;;;;;132.93;38.80;;;7.90;99.90;;;;;;4808489;29;20232;-64
2023/02/23 01:36:27;;;;;;;149.30;40.13;;;7.80;99.90;;;;;;4808320;29;20274;-64
2023/02/23 01:39:33;;;;;;;133.73;37.93;;;7.80;99.90;;;;;;4808196;29;20576;-64
2023/02/23 01:42:42;;;;;;;139.37;38.57;;;7.90;99.90;;;;;;4808039;29;20664;-63
2023/02/23 01:45:48;;;;;;;146.70;41.90;;;7.80;99.90;;;;;;4808185;29;20653;-64
2023/02/23 01:48:56;;;;;;;131.07;38.00;;;7.80;99.90;;;;;;4807369;29;20220;-64
2023/02/23 01:52:05;;;;;;;140.53;39.67;;;7.80;99.90;;;;;;4789832;30;20229;-64
2023/02/23 01:55:12;;;;;;;143.20;40.60;;;7.80;99.90;;;;;;4790047;30;20278;-64
2023/02/23 01:58:22;;;;;;;128.50;38.60;;;7.90;99.90;;;;;;4790219;30;20186;-63
2023/02/23 02:01:28;;;;;;;137.87;40.97;;;7.80;99.90;;;;;;4789610;30;20185;-63
2023/02/23 02:04:42;;;;;;;146.73;42.47;;;7.80;99.90;;;;;;4789648;30;20225;-63
2023/02/23 02:07:57;;;;;;;127.10;39.20;;;7.80;99.90;;;;;;4789261;30;20229;-63
2023/02/23 02:11:24;;;;;;;158.77;42.13;;;7.80;99.90;;;;;;4789090;30;20225;-64
2023/02/23 02:14:31;;;;;;;135.13;40.03;;;7.80;99.90;;;;;;4789310;30;20198;-64
2023/02/23 02:17:46;;;;;;;138.33;39.93;;;7.80;99.90;;;;;;4789634;30;20681;-64
2023/02/23 02:21:17;;;;;;;151.47;43.97;;;7.80;99.90;;;;;;4789527;30;20197;-64
2023/02/23 02:25:10;;;;;;;152.97;42.77;;;7.80;99.90;;;;;;4789023;30;20185;-64
2023/02/23 02:28:55;;;;;;;153.43;42.50;;;7.80;99.90;;;;;;4787459;29;20643;-64
2023/02/23 02:32:43;;;;;;;153.20;42.00;;;7.80;99.90;;;;;;4768348;29;20600;-64
2023/02/23 02:36:16;;;;;;;135.80;39.63;;;7.80;99.90;;;;;;4788900;30;20219;-64
2023/02/23 02:39:35;;;;;;;147.27;41.07;;;7.70;99.90;;;;;;4788036;30;20274;-63
2023/02/23 02:42:57;;;;;;;143.87;41.00;;;7.70;99.90;;;;;;4788727;30;20217;-64
2023/02/23 02:46:06;;;;;;;144.23;40.30;;;7.70;99.90;;;;;;4788689;30;20304;-64
2023/02/23 02:49:18;;;;;;;142.50;41.13;;;7.80;99.90;;;;;;4788789;30;20225;-65
2023/02/23 02:52:29;;;;;;;149.33;41.80;;;7.70;99.90;;;;;;4788989;30;20221;-64
2023/02/23 02:55:42;;;;;;;154.80;44.90;;;7.70;99.90;;;;;;4788697;30;20247;-64
2023/02/23 02:58:49;;;;;;;157.30;44.93;;;7.70;99.90;;;;;;4789292;30;20186;-65
2023/02/23 04:18:15;;;;;;;142.70;41.43;;;7.50;99.90;;;;;;4791293;30;20574;-63
2023/02/23 04:35:10;;;;;;;146.50;43.03;;;7.50;99.90;;;;;;4790795;30;20267;-65
2023/02/23 04:38:16;;;;;;;153.60;43.40;;;7.50;99.90;;;;;;4791401;30;20712;-64
2023/02/23 04:41:22;;;;;;;169.70;44.33;;;7.50;99.90;;;;;;4791001;30;20221;-65
2023/02/23 04:44:27;;;;;;;163.60;44.33;;;7.50;99.90;;;;;;4791024;30;20189;-64
2023/02/23 04:47:33;;;;;;;159.40;42.80;;;7.50;99.90;;;;;;4790797;30;20670;-64
2023/02/23 04:50:41;;;;;;;143.90;43.53;;;7.40;99.90;;;;;;4790441;30;20225;-64
2023/02/23 04:53:47;;;;;;;174.30;43.57;;;7.40;99.90;;;;;;4790486;30;20221;-64
2023/02/23 04:56:53;;;;;;;140.70;40.47;;;7.40;99.90;;;;;;4790593;30;20225;-64
2023/02/23 04:59:59;;;;;;;152.00;42.10;;;7.40;99.90;;;;;;4790784;30;20181;-64
2023/02/23 05:03:04;;;;;;;147.50;42.67;;;7.30;99.90;;;;;;4789996;29;20243;-63
2023/02/23 05:06:12;;;;;;;148.07;40.97;;;7.30;99.90;;;;;;4790113;30;20744;-63
2023/02/23 05:09:19;;;;;;;157.67;43.30;;;7.30;99.90;;;;;;4790397;30;20287;-64
2023/02/23 05:12:25;;;;;;;154.67;41.73;;;7.30;99.90;;;;;;4790332;30;20225;-64
2023/02/23 05:15:31;;;;;;;159.03;43.37;;;7.30;99.90;;;;;;4790634;30;20724;-64
2023/02/23 05:18:37;;;;;;;173.67;46.33;;;7.20;99.90;;;;;;4790536;30;20243;-64
2023/02/23 05:58:41;;;;;;;188.03;47.17;;;7.20;99.90;;;;;;4789661;30;20596;-64
2023/02/23 06:01:47;;;;;;;200.30;50.30;;;7.10;99.90;;;;;;4789746;30;20775;-64
2023/02/23 06:04:53;;;;;;;197.90;48.73;;;7.10;99.90;;;;;;4789639;30;20225;-64
2023/02/23 06:07:58;;;;;;;168.97;44.43;;;7.10;99.90;;;;;;4789277;30;20235;-64
2023/02/23 06:11:04;;;;;;;180.70;45.33;;;7.10;99.90;;;;;;4789228;30;20681;-64
2023/02/23 06:14:12;;;;;;;197.13;47.77;;;7.10;99.90;;;;;;4789047;29;20595;-64
2023/02/23 06:17:18;;;;;;;200.13;50.40;;;7.10;99.90;;;;;;4789458;30;20190;-64
2023/02/23 06:20:24;;;;;;;191.07;49.63;;;7.10;99.90;;;;;;4789255;30;20724;-64
2023/02/23 06:23:30;;;;;;;179.47;48.07;;;7.10;99.90;;;;;;4789096;30;20229;-63
2023/02/23 06:26:36;;;;;;;194.70;47.83;;;7.10;99.90;;;;;;4789324;30;20209;-64
2023/02/23 06:29:43;;;;;;;203.43;49.13;;;7.10;99.90;;;;;;4789218;30;20301;-64
2023/02/23 06:32:49;;;;;;;212.60;53.67;;;7.20;99.90;;;;;;4789094;30;20254;-65
2023/02/23 06:35:54;;;;;;;231.13;56.47;;;7.20;99.90;;;;;;4789218;30;20244;-63
2023/02/23 06:39:00;;;;;;;222.50;54.13;;;7.20;99.90;;;;;;4788843;30;20716;-64
2023/02/23 06:42:06;;;;;;;217.00;54.23;;;7.20;99.90;;;;;;4788999;30;20246;-64
2023/02/23 06:45:13;;;;;;;219.80;55.37;;;7.20;99.90;;;;;;4788830;30;20546;-64
2023/02/23 06:48:19;;;;;;;230.10;56.40;;;7.20;99.90;;;;;;4789114;30;20194;-64
2023/02/23 06:51:25;;;;;;;208.40;54.10;;;7.20;99.90;;;;;;4788693;30;20358;-64
2023/02/23 06:54:33;;;;;;;228.70;54.87;;;7.20;99.90;;;;;;4788807;30;20306;-64
2023/02/23 06:57:40;;;;;;;217.60;59.60;;;7.20;99.90;;;;;;4788765;30;20574;-64
2023/02/23 07:00:47;;;;;;;196.17;53.87;;;7.30;99.90;;;;;;4792400;29;20259;-64
2023/02/23 07:03:53;;;;;;;178.43;49.07;;;7.30;99.90;;;;;;4806874;29;20192;-65
2023/02/23 07:06:59;;;;;;;193.13;48.40;;;7.30;99.90;;;;;;4806349;29;20248;-65
2023/02/23 07:10:05;;;;;;;190.63;48.27;;;7.30;99.90;;;;;;4806348;29;20220;-64
2023/02/23 07:13:11;;;;;;;205.50;49.20;;;7.30;99.90;;;;;;4806425;29;20227;-64
2023/02/23 07:16:18;;;;;;;179.50;48.90;;;7.30;99.90;;;;;;4806149;29;20558;-63
2023/02/23 07:19:25;;;;;;;202.40;51.07;;;7.30;99.90;;;;;;4806865;29;20700;-65
2023/02/23 07:22:32;;;;;;;189.50;49.47;;;7.40;99.90;;;;;;4806437;29;20216;-64
2023/02/23 07:25:38;;;;;;;192.70;47.83;;;7.40;99.90;;;;;;4806438;29;20432;-64
2023/02/23 07:28:44;;;;;;;182.60;45.37;;;7.40;99.90;;;;;;4810523;29;20232;-63
2023/02/23 07:31:51;;;;;;;176.23;45.50;;;7.40;99.90;;;;;;4810177;29;20192;-64
2023/02/23 07:39:36;;;;;;;183.40;46.90;;;7.50;99.90;;;;;;4809681;29;20266;-64
2023/02/23 07:42:43;;;;;;;180.80;45.93;;;7.60;99.90;;;;;;4792033;30;20197;-64
2023/02/23 07:45:49;;;;;;;153.97;44.47;;;7.60;99.90;;;;;;4792389;30;20674;-63
2023/02/23 07:48:57;;;;;;;180.53;49.20;;;7.70;99.90;;;;;;4791560;30;20235;-64
2023/02/23 07:52:04;;;;;;;170.50;47.00;;;7.70;99.90;;;;;;4791972;30;20189;-64
2023/02/23 07:55:11;;;;;;;171.33;47.53;;;7.80;99.90;;;;;;4791754;30;20221;-65
2023/02/23 07:58:17;;;;;;;170.87;49.03;;;7.80;99.90;;;;;;4791730;30;20221;-64
2023/02/23 08:01:23;;;;;;;164.30;46.57;;;7.90;99.90;;;;;;4791947;30;20251;-64
2023/02/23 08:04:30;;;;;;;158.63;48.07;;;7.90;99.90;;;;;;4791506;30;20559;-64
2023/02/23 08:07:37;;;;;;;165.43;46.60;;;8.00;99.90;;;;;;4791018;30;20259;-63
2023/02/23 08:10:43;;;;;;;167.63;49.27;;;8.00;99.90;;;;;;4791515;30;20233;-64
2023/02/23 08:13:49;;;;;;;169.43;48.30;;;8.10;99.90;;;;;;4791466;30;20221;-64
2023/02/23 08:16:55;;;;;;;166.17;48.50;;;8.20;99.90;;;;;;4791624;30;20665;-64
2023/02/23 08:20:02;;;;;;;157.60;48.53;;;8.20;99.90;;;;;;4791488;30;20759;-64
2023/02/23 08:23:09;;;;;;;167.07;51.60;;;8.30;99.90;;;;;;4791437;30;20354;-65
2023/02/23 08:26:15;;;;;;;165.60;49.90;;;8.40;99.90;;;;;;4791441;30;20294;-64
2023/02/23 08:29:21;;;;;;;160.33;50.13;;;8.40;99.90;;;;;;4791418;30;20277;-64
2023/02/23 08:32:28;;;;;;;155.47;50.17;;;8.50;99.90;;;;;;4791598;30;20185;-64
2023/02/23 08:35:35;;;;;;;150.73;48.67;;;8.50;99.90;;;;;;4790929;30;20690;-65
2023/02/23 08:38:41;;;;;;;154.20;49.90;;;8.40;99.90;;;;;;4790257;29;20211;-64
2023/02/23 08:41:47;;;;;;;139.57;47.63;;;8.40;99.90;;;;;;4790930;30;20221;-64
2023/02/23 08:44:53;;;;;;;133.23;46.57;;;8.60;99.90;;;;;;4807948;29;20232;-64
2023/02/23 08:47:58;;;;;;;132.27;45.50;;;8.80;99.90;;;;;;4808831;29;20188;-64
2023/02/23 08:51:06;;;;;;;131.43;46.20;;;8.80;99.90;;;;;;4808615;29;20224;-64
2023/02/23 08:54:13;;;;;;;116.60;45.07;;;9.00;99.90;;;;;;4808721;29;20188;-65
2023/02/23 08:59:55;;;;;;;109.50;44.03;;;9.30;99.90;;;;;;5075723;27;20950;-62
2023/02/23 09:03:00;;;;;;;105.87;43.33;;;9.40;99.90;;;;;;5031060;28;20184;-62
2023/02/23 09:06:09;;;;;;;99.50;41.67;;;9.40;99.90;;;;;;5030904;28;20224;-62
2023/02/23 09:09:15;;;;;;;94.03;39.97;;;9.50;99.90;;;;;;4991612;28;20225;-62
2023/02/23 09:12:20;;;;;;;91.73;39.37;;;9.40;99.90;;;;;;4991579;28;20197;-62
2023/02/23 09:20:33;;;;;;;84.77;38.23;;;10.00;99.90;;;;;;5070737;28;20555;-62
2023/02/23 09:26:42;;;;;;;75.77;36.43;;;10.70;99.90;;;;;;5110679;27;20233;-62
2023/02/23 09:32:55;;;;;;;70.63;35.10;;;11.00;99.90;;;;;;5110746;28;20276;-62
2023/02/23 09:35:24;;;;;;;67.37;32.83;;;11.10;99.90;;;;;;5110486;28;20276;-61
2023/02/23 09:37:55;;;;;;;66.80;33.80;;;11.30;99.90;;;;;;5110386;27;20752;-63
2023/02/23 09:40:27;;;;;;;77.00;35.80;;;11.30;99.90;;;;;;5110475;28;20253;-61
2023/02/23 09:43:02;;;;;;;69.23;35.07;;;11.40;99.90;;;;;;5110240;27;20229;-62
2023/02/23 09:49:18;;;;;;;64.30;31.83;;;11.50;99.90;;;;;;5110096;28;20263;-62
2023/02/23 09:55:35;;;;;;;71.13;33.60;;;11.30;99.90;;;;;;5090168;28;20476;-63
2023/02/23 09:58:08;;;;;;;65.47;32.13;;;11.10;99.90;;;;;;5089869;28;20258;-62
2023/02/23 10:00:42;;;;;;;70.07;34.50;;;11.00;99.90;;;;;;5101180;28;20692;-62
2023/02/23 10:03:21;;;;;;;63.87;32.13;;;10.90;99.90;;;;;;5110102;28;20666;-63
2023/02/23 10:09:51;;;;;;;62.87;32.17;;;11.20;99.90;;;;;;5110045;27;20225;-62
2023/02/23 10:12:31;;;;;;;57.13;29.87;;;11.40;99.90;;;;;;5110121;27;20257;-62
2023/02/23 10:15:10;;;;;;;60.80;31.57;;;11.40;99.90;;;;;;5110052;27;20305;-62
2023/02/23 10:17:46;;;;;;;62.43;30.60;;;11.50;99.90;;;;;;5110123;27;20635;-62
2023/02/23 10:20:23;;;;;;;58.87;29.73;;;11.50;99.90;;;;;;5109510;27;20230;-62
2023/02/23 10:22:54;;;;;;;60.43;31.50;;;11.50;99.90;;;;;;5109615;27;20190;-62
2023/02/23 10:25:28;;;;;;;59.47;31.17;;;11.40;99.90;;;;;;5110443;28;20201;-62
2023/02/23 10:27:59;;;;;;;64.37;31.57;;;11.30;99.90;;;;;;5109490;27;20303;-62
2023/02/23 10:30:30;;;;;;;66.27;32.03;;;11.20;99.90;;;;;;5104284;27;20569;-61
2023/02/23 10:33:04;;;;;;;62.77;31.70;;;11.10;99.90;;;;;;5096044;28;20276;-62
2023/02/23 10:35:34;;;;;;;60.93;30.93;;;11.10;99.90;;;;;;5096174;28;20747;-62
2023/02/23 10:38:02;;;;;;;65.73;32.13;;;11.10;99.90;;;;;;5095747;28;20242;-62
2023/02/23 10:40:34;;;;;;;61.13;31.13;;;11.00;99.90;;;;;;5096238;28;20281;-63
2023/02/23 10:43:04;;;;;;;64.53;32.60;;;11.00;99.90;;;;;;5095557;28;20231;-61
2023/02/23 10:45:37;;;;;;;66.40;32.60;;;10.90;99.90;;;;;;5095567;28;20249;-62
2023/02/23 10:48:08;;;;;;;58.97;30.73;;;10.90;99.90;;;;;;5095523;28;20883;-62
2023/02/23 10:50:39;;;;;;;68.83;32.80;;;10.90;99.90;;;;;;5095174;28;20230;-62
2023/02/23 10:53:15;;;;;;;64.90;32.87;;;10.90;99.90;;;;;;5095454;28;20226;-61
2023/02/23 10:55:45;;;;;;;65.23;32.63;;;10.90;99.90;;;;;;5096137;28;20187;-62
2023/02/23 10:58:19;;;;;;;67.00;33.77;;;10.90;99.90;;;;;;5095485;28;20227;-61
2023/02/23 11:00:53;;;;;;;72.00;34.67;;;10.90;99.90;;;;;;5095251;28;20266;-62
2023/02/23 11:03:29;;;;;;;70.77;35.00;;;10.80;99.90;;;;;;5095354;28;20273;-62
2023/02/23 11:05:58;;;;;;;67.83;34.70;;;10.80;99.90;;;;;;5095471;28;20685;-62
2023/02/23 11:08:30;;;;;;;72.43;36.37;;;10.70;99.90;;;;;;5095223;28;20223;-62
2023/02/23 11:11:01;;;;;;;73.73;34.93;;;10.70;99.90;;;;;;5094903;28;20190;-62
2023/02/23 11:13:36;;;;;;;70.93;35.33;;;10.80;99.90;;;;;;5095248;28;20229;-62
2023/02/23 11:16:08;;;;;;;72.10;36.07;;;10.80;99.90;;;;;;5095076;28;20314;-61
2023/02/23 11:18:39;;;;;;;69.47;34.03;;;10.80;99.90;;;;;;5094668;28;20600;-61
2023/02/23 11:21:13;;;;;;;65.40;33.67;;;10.90;99.90;;;;;;5094792;28;20233;-62
2023/02/23 11:23:42;;;;;;;67.67;34.33;;;10.90;99.90;;;;;;5095030;28;20223;-62
2023/02/23 11:26:29;;;;;;;69.40;33.07;;;10.80;99.90;;;;;;5094600;28;20238;-62
2023/02/23 11:29:04;;;;;;;69.10;32.67;;;10.90;99.90;;;;;;5094368;28;20187;-62
2023/02/23 11:31:35;;;;;;;67.43;31.87;;;11.00;99.90;;;;;;5095197;28;20191;-62
2023/02/23 11:34:05;;;;;;;65.10;31.20;;;11.00;99.90;;;;;;5094757;28;20227;-62
2023/02/23 11:36:35;;;;;;;64.33;30.57;;;11.00;99.90;;;;;;5094598;28;20310;-62
2023/02/23 11:39:19;;;;;;;59.43;29.83;;;10.90;99.90;;;;;;5094495;28;20254;-62
2023/02/23 11:42:03;;;;;;;60.03;30.43;;;10.90;99.90;;;;;;5093726;28;20251;-62
2023/02/23 11:44:33;;;;;;;58.03;29.33;;;10.80;99.90;;;;;;5094617;28;20753;-62
2023/02/23 11:47:03;;;;;;;57.63;29.43;;;10.80;99.90;;;;;;5094613;28;20217;-61
2023/02/23 11:49:34;;;;;;;59.90;29.40;;;10.80;99.90;;;;;;5094749;28;20184;-62
2023/02/23 11:52:03;;;;;;;57.73;29.00;;;10.90;99.90;;;;;;5094230;28;20719;-63
2023/02/23 11:54:33;;;;;;;53.93;27.63;;;10.90;99.90;;;;;;5094497;28;20654;-62
2023/02/23 11:57:02;;;;;;;57.27;28.07;;;10.80;99.90;;;;;;5094367;28;20246;-62
2023/02/23 11:59:35;;;;;;;52.10;25.57;;;10.80;99.90;;;;;;5094429;28;20280;-62
2023/02/23 12:02:21;;;;;;;49.43;24.87;;;10.70;99.90;;;;;;5094144;28;20183;-62
2023/02/23 12:04:52;;;;;;;53.23;25.73;;;10.70;99.90;;;;;;5094354;28;20195;-62
2023/02/23 12:07:28;;;;;;;50.73;24.73;;;10.60;99.90;;;;;;5094250;28;20219;-62
2023/02/23 12:10:03;;;;;;;54.30;26.23;;;10.60;99.90;;;;;;5093862;27;20302;-62
2023/02/23 12:12:36;;;;;;;53.47;26.63;;;10.50;99.90;;;;;;5093859;28;20689;-62
2023/02/23 12:15:14;;;;;;;54.90;27.43;;;10.50;99.90;;;;;;5094105;28;20227;-62
2023/02/23 12:17:49;;;;;;;54.27;27.57;;;10.60;99.90;;;;;;5093980;27;20283;-62
2023/02/23 12:20:23;;;;;;;59.00;27.87;;;10.60;99.90;;;;;;5093401;28;20235;-62
2023/02/23 12:22:54;;;;;;;55.67;26.73;;;10.50;99.90;;;;;;5093518;28;20219;-61
2023/02/23 12:25:27;;;;;;;61.97;28.07;;;10.50;99.90;;;;;;5094144;28;20194;-62
2023/02/23 12:28:04;;;;;;;55.63;26.47;;;10.50;99.90;;;;;;5093603;28;20749;-62
2023/02/23 12:30:51;;;;;;;57.97;26.80;;;10.50;99.90;;;;;;5093808;28;20738;-61
2023/02/23 12:33:28;;;;;;;59.07;27.33;;;10.60;99.90;;;;;;5093622;28;20309;-62
2023/02/23 12:36:01;;;;;;;56.80;28.23;;;10.70;99.90;;;;;;5093730;28;20230;-62
2023/02/23 12:42:15;;;;;;;59.40;26.30;;;10.70;99.90;;;;;;5093467;28;20272;-62
2023/02/23 12:44:47;;;;;;;61.13;28.10;;;10.70;99.90;;;;;;5093437;28;20309;-62
2023/02/23 12:51:11;;;;;;;56.17;26.97;;;10.70;99.90;;;;;;5093040;28;20269;-62
2023/02/23 12:57:37;;;;;;;58.43;26.47;;;10.70;99.90;;;;;;5109525;27;20230;-62
2023/02/23 13:00:33;;;;;;;61.77;26.87;;;10.70;99.90;;;;;;5113236;27;20332;-62
2023/02/23 13:03:29;;;;;;;60.57;27.50;;;10.80;99.90;;;;;;5113263;27;20250;-62
2023/02/23 13:06:07;;;;;;;52.97;25.60;;;10.80;99.90;;;;;;5113402;27;20696;-61
2023/02/23 13:12:39;;;;;;;58.87;27.00;;;10.70;99.90;;;;;;5113335;27;20572;-61
2023/02/23 13:15:21;;;;;;;58.70;26.47;;;10.70;99.90;;;;;;5113611;27;20695;-62
2023/02/23 13:17:56;;;;;;;57.43;27.07;;;10.70;99.90;;;;;;5113358;27;20228;-62
2023/02/23 13:20:32;;;;;;;55.63;26.43;;;10.70;99.90;;;;;;5113048;27;20602;-62
2023/02/23 13:23:13;;;;;;;53.97;24.90;;;10.70;99.90;;;;;;5113191;27;20218;-62
2023/02/23 13:25:49;;;;;;;52.10;24.87;;;10.80;99.90;;;;;;5113597;28;20195;-62
2023/02/23 13:28:27;;;;;;;56.40;26.03;;;10.90;99.90;;;;;;5113492;28;20221;-62
2023/02/23 13:30:55;;;;;;;52.47;25.43;;;11.00;99.90;;;;;;5113299;27;20218;-62
2023/02/23 13:37:07;;;;;;;48.97;22.37;;;11.10;99.90;;;;;;5113318;27;20744;-62
2023/02/23 13:39:54;;;;;;;53.60;24.17;;;11.00;99.90;;;;;;5113051;27;20237;-62
2023/02/23 13:42:48;;;;;;;44.33;22.30;;;11.10;99.90;;;;;;5112995;27;20272;-62
2023/02/23 13:46:07;;;;;;;48.53;21.93;;;11.20;99.90;;;;;;5112880;27;20222;-63
2023/02/23 13:48:45;;;;;;;48.33;22.20;;;11.30;99.90;;;;;;5045610;28;20302;-63
2023/02/23 13:51:35;;;;;;;45.20;22.03;;;11.30;99.90;;;;;;5113017;27;20218;-62
2023/02/23 13:54:21;;;;;;;40.47;20.10;;;11.10;99.90;;;;;;5097143;28;20227;-62
2023/02/23 14:00:33;;;;;;;42.60;20.40;;;10.90;99.90;;;;;;5092329;28;20269;-62
2023/02/23 14:03:04;;;;;;;39.57;19.70;;;10.80;99.90;;;;;;5090307;28;20305;-63
2023/02/23 14:05:43;;;;;;;35.30;18.27;;;10.70;99.90;;;;;;5073078;28;20265;-62
2023/02/23 14:08:22;;;;;;;40.87;19.27;;;10.60;99.90;;;;;;5080237;28;20278;-62
2023/02/23 14:10:54;;;;;;;43.63;20.53;;;10.60;99.90;;;;;;5096180;28;20266;-61
2023/02/23 14:13:29;;;;;;;38.70;19.47;;;10.50;99.90;;;;;;5096394;28;20271;-62
2023/02/23 14:16:16;;;;;;;34.07;18.47;;;10.40;99.90;;;;;;5095972;28;20607;-62
2023/02/23 14:19:14;;;;;;;40.83;19.27;;;10.50;99.90;;;;;;5096002;28;20239;-61
2023/02/23 14:21:48;;;;;;;45.93;19.27;;;10.60;99.90;;;;;;5078408;28;20262;-62
2023/02/23 14:24:20;;;;;;;37.33;18.13;;;10.70;99.90;;;;;;5096005;28;20234;-62
2023/02/23 14:27:25;;;;;;;37.87;18.73;;;10.80;99.90;;;;;;5096203;28;20253;-62
2023/02/23 14:30:29;;;;;;;37.53;18.73;;;11.00;99.90;;;;;;5095810;28;20716;-62
2023/02/23 14:33:06;;;;;;;36.07;18.30;;;11.30;99.90;;;;;;5092725;28;20223;-63
2023/02/23 14:35:49;;;;;;;33.60;17.20;;;11.50;99.90;;;;;;5095675;28;20219;-62
2023/02/23 14:38:30;;;;;;;32.37;17.40;;;11.70;99.90;;;;;;5095533;28;20254;-62
2023/02/23 14:41:14;;;;;;;32.70;17.00;;;11.70;99.90;;;;;;5095935;28;20227;-62
2023/02/23 14:43:45;;;;;;;33.33;16.63;;;11.60;99.90;;;;;;5096385;28;20286;-62
2023/02/23 14:46:18;;;;;;;28.57;15.63;;;11.50;99.90;;;;;;5095499;28;20310;-62
2023/02/23 14:49:00;;;;;;;28.10;15.73;;;11.30;99.90;;;;;;5095676;28;20701;-62
2023/02/23 14:51:38;;;;;;;27.50;15.20;;;11.20;99.90;;;;;;5095337;28;20250;-62
2023/02/23 14:54:14;;;;;;;28.73;15.27;;;11.00;99.90;;;;;;5095556;28;20604;-61
2023/02/23 14:56:47;;;;;;;32.57;15.97;;;10.90;99.90;;;;;;5095515;28;20227;-62
2023/02/23 14:59:20;;;;;;;29.03;15.67;;;10.90;99.90;;;;;;5095387;28;20222;-62
2023/02/23 15:01:50;;;;;;;30.20;16.30;;;10.80;99.90;;;;;;5095972;28;20215;-62
2023/02/23 15:04:22;;;;;;;29.77;16.03;;;10.80;99.90;;;;;;5095351;28;20223;-61
2023/02/23 15:06:55;;;;;;;32.67;16.20;;;10.60;99.90;;;;;;5095287;27;20250;-61
2023/02/23 15:09:30;;;;;;;32.63;16.23;;;10.50;99.90;;;;;;5094981;28;20219;-62
2023/02/23 15:12:05;;;;;;;29.77;16.03;;;10.40;99.90;;;;;;5095587;28;20227;-62
2023/02/23 15:14:37;;;;;;;32.67;16.50;;;10.30;99.90;;;;;;5095273;28;20257;-62
2023/02/23 15:17:07;;;;;;;31.50;16.30;;;10.30;99.90;;;;;;5095093;28;20184;-62
2023/02/23 15:19:38;;;;;;;31.43;15.67;;;10.30;99.90;;;;;;5094975;28;20231;-62
2023/02/23 15:22:06;;;;;;;35.53;17.80;;;10.40;99.90;;;;;;5094925;28;20223;-62
2023/02/23 15:24:43;;;;;;;32.33;16.33;;;10.40;99.90;;;;;;5094542;28;20280;-62
2023/02/23 15:27:17;;;;;;;31.03;15.93;;;10.40;99.90;;;;;;5094466;28;20281;-62
2023/02/23 15:29:46;;;;;;;27.17;15.00;;;10.40;99.90;;;;;;5094880;28;20752;-62
2023/02/23 15:32:20;;;;;;;25.27;14.53;;;10.40;99.90;;;;;;5094784;28;20663;-62
2023/02/23 15:34:51;;;;;;;26.97;14.43;;;10.50;99.90;;;;;;5095406;28;20598;-62
2023/02/23 15:37:27;;;;;;;26.63;13.70;;;10.60;99.90;;;;;;5095112;28;20298;-62
2023/02/23 15:39:59;;;;;;;26.77;14.30;;;10.60;99.90;;;;;;5094329;27;20748;-62
2023/02/23 15:42:32;;;;;;;24.80;13.30;;;10.70;99.90;;;;;;5094471;28;20342;-62
2023/02/23 15:48:50;;;;;;;22.60;12.57;;;10.90;99.90;;;;;;5094420;28;20230;-62
2023/02/23 15:51:30;;;;;;;19.23;11.53;;;10.90;99.90;;;;;;5094495;28;20302;-63
2023/02/23 15:54:00;;;;;;;19.73;11.23;;;10.80;99.90;;;;;;5094339;28;20226;-62
2023/02/23 15:56:30;;;;;;;16.43;11.00;;;10.70;99.90;;;;;;5094518;28;20314;-62
2023/02/23 15:59:06;;;;;;;16.67;10.57;;;10.60;99.90;;;;;;5094241;28;20203;-62
2023/02/23 16:05:20;;;;;;;15.87;10.63;;;10.50;99.90;;;;;;5094177;28;20285;-62
2023/02/23 16:08:04;;;;;;;17.30;10.73;;;10.40;99.90;;;;;;5094722;28;20641;-61
2023/02/23 16:10:53;;;;;;;16.00;11.03;;;10.40;99.90;;;;;;5094316;28;20750;-62
2023/02/23 16:13:22;;;;;;;19.17;11.73;;;10.40;99.90;;;;;;5094451;28;20614;-61
2023/02/23 16:15:53;;;;;;;17.80;11.67;;;10.40;99.90;;;;;;5093759;28;20231;-62
2023/02/23 16:18:29;;;;;;;17.93;11.50;;;10.30;99.90;;;;;;5093543;28;20303;-62
2023/02/23 16:21:01;;;;;;;18.83;11.47;;;10.30;99.90;;;;;;5093809;28;20250;-62
2023/02/23 16:23:36;;;;;;;18.87;11.60;;;10.30;99.90;;;;;;5093764;28;20754;-61
2023/02/23 16:26:10;;;;;;;21.33;10.60;;;10.30;99.90;;;;;;5093606;28;20254;-61
2023/02/23 16:28:43;;;;;;;16.80;10.73;;;10.30;99.90;;;;;;5094034;28;20613;-62
2023/02/23 16:31:15;;;;;;;16.67;9.80;;;10.20;99.90;;;;;;5093498;28;20234;-62
2023/02/23 16:33:47;;;;;;;17.80;10.43;;;10.20;99.90;;;;;;5093684;28;20311;-62
2023/02/23 16:36:19;;;;;;;14.43;9.73;;;10.20;99.90;;;;;;5093576;28;20705;-62
2023/02/23 16:38:59;;;;;;;17.57;9.77;;;10.30;99.90;;;;;;5093686;28;20309;-62
2023/02/23 16:41:29;;;;;;;18.53;9.67;;;10.30;99.90;;;;;;5093329;28;20230;-62
2023/02/23 16:44:00;;;;;;;16.40;9.87;;;10.30;99.90;;;;;;5093276;28;20299;-62
2023/02/23 16:46:31;;;;;;;15.97;9.53;;;10.30;99.90;;;;;;5093899;28;20187;-62
2023/02/23 16:52:50;;;;;;;16.70;9.63;;;10.10;99.90;;;;;;5093318;28;20311;-62
2023/02/23 16:55:56;;;;;;;14.83;9.50;;;10.00;99.90;;;;;;5093756;28;20219;-62
2023/02/23 16:58:29;;;;;;;15.40;9.13;;;9.90;99.90;;;;;;5093072;28;20227;-62
2023/02/23 17:00:57;;;;;;;17.73;10.13;;;9.90;99.90;;;;;;5093067;28;20688;-62
2023/02/23 17:03:28;;;;;;;16.33;9.17;;;9.80;99.90;;;;;;5093273;28;20748;-61
2023/02/23 17:05:57;;;;;;;16.07;10.10;;;9.80;99.90;;;;;;5093087;28;20223;-62
2023/02/23 17:08:26;;;;;;;16.27;9.87;;;9.70;99.90;;;;;;5093086;28;20227;-62
2023/02/23 17:10:56;;;;;;;15.60;10.00;;;9.70;99.90;;;;;;5092868;28;20638;-62
2023/02/23 17:13:27;;;;;;;12.27;9.27;;;9.60;99.90;;;;;;5093560;28;20532;-62
2023/02/23 17:15:56;;;;;;;14.37;9.20;;;9.60;99.90;;;;;;5093049;27;20223;-62
2023/02/23 17:18:26;;;;;;;17.27;10.50;;;9.60;99.90;;;;;;5092785;28;20748;-63
2023/02/23 17:20:56;;;;;;;16.27;10.50;;;9.50;99.90;;;;;;5093044;28;20280;-62
2023/02/23 17:23:26;;;;;;;17.10;10.43;;;9.50;99.90;;;;;;5092674;28;20306;-62
2023/02/23 17:25:56;;;;;;;19.30;10.90;;;9.40;99.90;;;;;;5092934;28;20326;-62
2023/02/23 17:28:26;;;;;;;20.77;11.27;;;9.30;99.90;;;;;;5093251;28;20691;-62
2023/02/23 17:30:54;;;;;;;20.27;10.57;;;9.30;99.90;;;;;;5092686;28;20313;-62
2023/02/23 17:33:22;;;;;;;20.47;10.90;;;9.20;99.90;;;;;;5092799;28;20258;-61
2023/02/23 17:35:51;;;;;;;21.10;11.17;;;9.20;99.90;;;;;;5093019;28;20296;-62
2023/02/23 17:38:20;;;;;;;22.13;12.03;;;9.10;99.90;;;;;;5092935;28;20315;-62
2023/02/23 17:40:48;;;;;;;21.73;11.47;;;9.10;99.90;;;;;;5094300;28;20720;-61
2023/02/23 17:43:19;;;;;;;22.53;11.40;;;9.10;99.90;;;;;;5096757;28;20267;-61